Time;durP1;ratioP1;P1;durP2;ratioP2;P2;SDS_P1;SDS_P2;PMS_P1;PMS_P2;Temp;Humidity;BMP_temperature;BMP_pressure;BME280_temperature;BME280_humidity;BME280_pressure;Samples;Min_cycle;Max_cycle;Signal;HPM_P1;HPM_P2
2022/04/30 16:46:34;;;;;;;6.72;3.83;;;;;;;21.40;28.93;101827.94;5153133;27;20127;-44
2022/04/30 16:49:00;;;;;;;3.58;3.28;;;;;;;21.34;28.93;101825.31;5132014;28;20035;-44
2022/04/30 16:54:13;;;;;;;4.43;2.70;;;;;;;21.12;30.09;101817.63;5116287;28;20378;-43
2022/04/30 16:59:26;;;;;;;2.60;2.40;;;;;;;21.03;29.75;101808.91;5115539;28;20444;-45
2022/04/30 17:01:52;;;;;;;2.97;2.58;;;;;;;20.85;29.83;101798.84;5131106;28;20031;-47
2022/04/30 17:04:18;;;;;;;4.25;2.72;;;;;;;20.82;30.00;101798.47;5131029;28;20370;-44
2022/04/30 17:06:44;;;;;;;3.72;3.00;;;;;;;20.73;30.12;101794.38;5131280;28;20030;-45
2022/04/30 17:09:09;;;;;;;4.72;2.55;;;;;;;20.73;30.84;101802.56;5131146;28;20031;-49
2022/04/30 17:11:35;;;;;;;3.20;2.88;;;;;;;20.62;30.62;101799.56;5131057;28;20085;-46
2022/04/30 17:14:01;;;;;;;7.20;4.35;;;;;;;20.57;30.48;101788.44;5113135;28;20035;-47
2022/04/30 17:16:30;;;;;;;5.03;3.90;;;;;;;20.53;30.56;101802.78;5132263;28;20042;-46
2022/04/30 17:18:56;;;;;;;4.05;2.78;;;;;;;20.41;30.70;101795.38;5116593;28;20106;-45
2022/04/30 17:21:22;;;;;;;3.50;3.17;;;;;;;20.33;30.67;101805.72;5097716;28;20164;-45
2022/04/30 17:23:48;;;;;;;3.35;2.95;;;;;;;20.23;31.35;101801.63;5131907;28;20451;-46
2022/04/30 17:26:14;;;;;;;4.40;3.17;;;;;;;20.19;31.70;101794.97;5112634;28;20042;-46
2022/04/30 17:28:40;;;;;;;3.00;2.70;;;;;;;20.17;31.32;101797.09;5130828;28;20031;-44
2022/04/30 17:39:24;;;;;;;6.55;4.72;;;;;;;19.57;32.47;101764.00;5094725;28;20051;-46
2022/04/30 17:41:50;;;;;;;5.55;4.50;;;;;;;19.61;32.42;101787.03;5111117;28;20495;-46
2022/04/30 17:44:16;;;;;;;4.35;3.75;;;;;;;19.39;32.74;101778.41;5113608;28;20032;-44
2022/04/30 17:46:43;;;;;;;5.13;4.50;;;;;;;19.43;32.93;101772.28;5067384;28;20036;-45
2022/04/30 17:49:11;;;;;;;6.90;3.60;;;;;;;19.55;32.55;101783.31;5080079;28;20028;-44
2022/04/30 17:51:37;;;;;;;5.18;4.25;;;;;;;19.55;32.79;101786.03;5078047;28;20383;-47
2022/04/30 17:54:04;;;;;;;4.63;3.60;;;;;;;19.43;32.28;101788.66;5059247;28;20028;-44
2022/04/30 17:56:30;;;;;;;5.47;3.72;;;;;;;19.32;32.44;101776.56;5059262;28;20033;-49
2022/04/30 17:58:55;;;;;;;3.40;3.10;;;;;;;19.28;32.38;101779.97;5076241;28;20032;-45
2022/04/30 18:01:21;;;;;;;3.78;3.47;;;;;;;19.30;32.20;101789.56;5075384;28;20028;-46
2022/04/30 18:03:47;;;;;;;3.97;3.58;;;;;;;19.27;31.77;101791.88;5075317;28;20098;-44
2022/04/30 18:06:13;;;;;;;3.85;3.45;;;;;;;19.15;32.10;101781.69;5075380;28;20090;-45
2022/04/30 18:08:40;;;;;;;3.72;3.25;;;;;;;19.07;32.44;101790.09;5075823;28;20111;-42
2022/04/30 18:11:06;;;;;;;5.40;4.88;;;;;;;18.96;32.80;101796.25;5057241;28;20476;-44
2022/04/30 18:13:34;;;;;;;5.82;4.65;;;;;;;18.83;32.81;101782.69;5057550;28;20103;-44
2022/04/30 18:16:00;;;;;;;3.00;2.80;;;;;;;18.77;32.06;101778.91;5075338;28;20064;-46
2022/04/30 18:18:26;;;;;;;5.80;3.22;;;;;;;18.59;32.49;101785.06;5075320;28;20036;-47
2022/04/30 18:20:52;;;;;;;3.83;2.50;;;;;;;18.54;32.26;101791.16;5058207;28;20032;-46
2022/04/30 18:23:18;;;;;;;2.80;2.55;;;;;;;18.34;32.30;101780.31;5075491;28;20114;-48
2022/04/30 18:25:47;;;;;;;4.60;2.75;;;;;;;18.31;32.52;101793.50;5057814;28;20108;-47
2022/04/30 18:28:14;;;;;;;2.60;2.40;;;;;;;18.22;32.81;101789.34;5058596;28;20033;-45
2022/04/30 18:30:40;;;;;;;3.40;2.70;;;;;;;18.21;33.00;101799.38;5075914;28;20035;-46
2022/04/30 18:33:06;;;;;;;3.85;2.60;;;;;;;17.95;33.20;101763.03;5075550;28;20115;-45
2022/04/30 18:35:32;;;;;;;3.38;2.47;;;;;;;18.01;33.55;101779.53;5057383;28;20108;-45
2022/04/30 18:37:58;;;;;;;5.60;3.30;;;;;;;18.00;33.77;101786.88;5075047;28;20107;-45
2022/04/30 18:40:24;;;;;;;3.90;2.65;;;;;;;17.92;33.40;101785.22;5075134;28;20468;-45
2022/04/30 18:42:50;;;;;;;2.78;2.47;;;;;;;17.89;33.90;101784.78;5074732;28;20060;-46
2022/04/30 18:45:16;;;;;;;2.75;2.55;;;;;;;17.83;33.97;101791.88;5074508;28;20315;-44
2022/04/30 18:47:42;;;;;;;4.32;2.10;;;;;;;17.62;34.61;101792.88;5056600;28;20028;-43
2022/04/30 18:50:08;;;;;;;2.78;2.50;;;;;;;17.60;34.83;101794.97;5074849;28;20025;-43
2022/04/30 18:52:36;;;;;;;5.35;2.65;;;;;;;17.56;34.66;101793.72;5056689;28;20028;-44
2022/04/30 19:03:20;;;;;;;3.72;2.30;;;;;;;17.27;36.00;101789.50;5059904;28;20535;-44
2022/04/30 19:05:45;;;;;;;6.45;3.10;;;;;;;17.18;35.98;101794.31;5074633;28;20040;-43
2022/04/30 19:08:12;;;;;;;2.78;2.58;;;;;;;17.08;36.38;101791.13;5075875;28;20380;-46
2022/04/30 19:10:38;;;;;;;3.08;2.78;;;;;;;17.04;36.57;101793.41;5076907;28;20041;-46
2022/04/30 19:13:05;;;;;;;3.55;3.03;;;;;;;16.89;36.62;101779.16;5076601;28;20080;-47
2022/04/30 19:15:32;;;;;;;6.93;3.80;;;;;;;16.91;36.73;101802.34;5077723;28;20084;-46
2022/04/30 19:17:58;;;;;;;8.95;5.00;;;;;;;16.79;37.33;101802.06;5076670;28;20031;-45
2022/04/30 19:20:25;;;;;;;11.52;6.55;;;;;;;16.58;37.30;101781.28;5074722;28;20028;-44
2022/04/30 19:22:52;;;;;;;15.75;8.05;;;;;;;16.67;37.17;101806.38;5056479;28;20028;-44
2022/04/30 19:25:19;;;;;;;37.05;15.43;;;;;;;16.61;36.84;101799.88;5074227;28;20098;-47
2022/04/30 19:27:45;;;;;;;51.65;21.17;;;;;;;16.53;37.31;101801.91;5076045;28;20114;-44
2022/04/30 19:30:12;;;;;;;32.13;16.85;;;;;;;16.50;37.62;101807.75;5076144;28;20028;-45
2022/04/30 19:32:37;;;;;;;22.75;12.85;;;;;;;16.42;37.67;101808.75;5073732;28;20472;-46
2022/04/30 19:35:05;;;;;;;14.35;9.52;;;;;;;16.28;38.44;101788.84;5055930;28;20103;-48
2022/04/30 19:37:32;;;;;;;10.98;8.13;;;;;;;16.27;38.71;101811.59;5056083;28;20032;-50
2022/04/30 19:39:58;;;;;;;10.73;6.45;;;;;;;16.21;38.49;101804.22;5077373;28;20020;-44
2022/04/30 19:42:24;;;;;;;8.63;6.60;;;;;;;16.20;38.46;101797.16;5082489;28;20431;-47
2022/04/30 19:44:51;;;;;;;7.35;6.28;;;;;;;15.98;38.78;101783.63;5079229;28;20041;-45
2022/04/30 19:47:17;;;;;;;7.68;5.15;;;;;;;15.91;39.76;101795.47;5057303;28;20468;-46
2022/04/30 19:49:44;;;;;;;5.22;4.45;;;;;;;15.86;39.95;101801.44;5056359;28;20405;-44
2022/04/30 19:52:10;;;;;;;4.68;4.15;;;;;;;15.73;40.63;101801.31;5073923;28;20024;-44
2022/04/30 19:54:39;;;;;;;4.82;3.65;;;;;;;15.61;39.96;101804.53;5073978;28;20425;-45
2022/04/30 19:57:05;;;;;;;8.88;6.70;;;;;;;15.57;39.81;101805.16;5073817;28;20021;-46
2022/04/30 19:59:33;;;;;;;8.20;6.53;;;;;;;15.39;39.81;101778.50;5073769;28;20029;-46
2022/04/30 20:02:01;;;;;;;5.65;4.72;;;;;;;15.56;40.09;101806.16;5073423;28;20245;-47
2022/04/30 20:04:27;;;;;;;5.13;3.60;;;;;;;15.43;40.55;101806.88;5039021;28;20400;-44
2022/04/30 20:06:52;;;;;;;5.15;4.20;;;;;;;15.36;41.84;101808.66;5073765;28;20091;-43
2022/04/30 20:09:19;;;;;;;4.18;3.78;;;;;;;15.18;41.94;101801.81;5074468;28;20029;-46
2022/04/30 20:17:16;;;;;;;10.10;4.53;;;;;;;15.14;41.05;101808.66;5062383;28;20036;-43
2022/04/30 20:19:43;;;;;;;4.10;3.65;;;;;;;15.11;41.01;101800.91;5056436;28;20537;-44
2022/04/30 20:22:09;;;;;;;6.43;4.13;;;;;;;15.15;41.70;101802.19;5055740;28;20037;-44
2022/04/30 20:24:35;;;;;;;6.45;4.25;;;;;;;15.11;41.36;101798.19;5055476;28;20407;-45
2022/04/30 20:27:04;;;;;;;6.70;3.95;;;;;;;15.14;41.17;101791.59;5073403;28;20032;-44
2022/04/30 20:29:29;;;;;;;6.72;4.72;;;;;;;15.01;41.55;101792.28;5039180;28;20028;-48
2022/04/30 20:37:30;;;;;;;5.80;4.55;;;;;;;14.99;42.08;101803.28;5058054;28;20034;-42
2022/04/30 20:39:56;;;;;;;6.00;4.10;;;;;;;14.95;41.67;101793.88;5073231;28;20085;-43
2022/04/30 20:42:24;;;;;;;5.25;4.60;;;;;;;14.85;41.82;101788.75;5073129;28;20473;-43
2022/04/30 20:44:50;;;;;;;8.35;4.53;;;;;;;14.81;42.22;101783.91;5061404;28;20101;-44
2022/04/30 20:47:15;;;;;;;7.40;4.10;;;;;;;14.88;42.17;101801.91;5075497;28;20024;-43
2022/04/30 20:49:42;;;;;;;5.78;4.43;;;;;;;14.78;42.04;101787.81;5093582;28;20032;-44
2022/04/30 20:52:08;;;;;;;4.85;3.83;;;;;;;14.80;42.72;101790.34;5093483;28;20424;-43
2022/04/30 20:54:35;;;;;;;5.68;4.07;;;;;;;14.78;41.94;101793.22;5075549;28;20024;-43
2022/04/30 20:57:02;;;;;;;6.75;3.65;;;;;;;14.54;42.68;101775.41;5077225;28;20024;-43
2022/04/30 20:59:29;;;;;;;4.82;4.05;;;;;;;14.55;42.74;101782.50;5096018;28;20039;-43
2022/04/30 21:01:55;;;;;;;5.35;4.40;;;;;;;14.65;42.58;101799.31;5078408;28;20028;-43
2022/04/30 21:04:21;;;;;;;3.40;3.10;;;;;;;14.63;42.76;101798.66;5098163;28;20028;-43
2022/04/30 21:06:47;;;;;;;5.90;4.03;;;;;;;14.61;42.99;101794.47;5077767;28;20036;-42
2022/04/30 21:09:13;;;;;;;7.13;3.70;;;;;;;14.50;42.64;101774.97;5096045;28;20028;-44
2022/04/30 21:11:40;;;;;;;11.25;3.92;;;;;;;14.60;42.67;101793.63;5061024;28;20027;-43
2022/04/30 21:14:07;;;;;;;6.03;3.88;;;;;;;14.46;43.56;101795.28;5094979;28;20032;-43
2022/04/30 21:16:34;;;;;;;5.60;4.35;;;;;;;14.29;43.04;101782.97;5076684;28;20032;-43
2022/04/30 21:19:00;;;;;;;8.80;3.85;;;;;;;14.29;43.13;101793.78;5093256;28;20040;-43
2022/04/30 21:21:26;;;;;;;6.00;4.20;;;;;;;14.28;43.03;101792.09;5094725;28;20028;-43
2022/04/30 21:23:52;;;;;;;5.40;3.90;;;;;;;14.19;43.59;101782.41;5078732;28;20404;-42
2022/04/30 21:26:18;;;;;;;9.50;4.55;;;;;;;14.23;43.44;101789.13;5096771;28;20028;-43
2022/04/30 21:28:45;;;;;;;5.28;3.63;;;;;;;14.17;43.26;101784.44;5096276;28;20150;-43
2022/04/30 21:31:15;;;;;;;6.57;4.20;;;;;;;14.12;43.80;101782.31;5096412;28;20028;-43
2022/04/30 21:33:41;;;;;;;8.05;4.50;;;;;;;13.91;44.29;101773.06;5096410;28;20039;-44
2022/04/30 21:36:08;;;;;;;4.18;3.88;;;;;;;13.89;43.56;101771.56;5096322;28;20024;-43
2022/04/30 21:38:34;;;;;;;4.88;4.15;;;;;;;13.92;43.59;101766.63;5096364;28;20085;-43
2022/04/30 21:43:46;;;;;;;5.90;3.83;;;;;;;13.94;43.67;101779.94;5081591;28;20088;-45
2022/04/30 21:46:12;;;;;;;7.50;4.32;;;;;;;13.86;43.56;101774.63;5079664;28;20052;-44
2022/04/30 21:48:37;;;;;;;5.65;4.57;;;;;;;13.78;43.92;101780.97;5078326;28;20033;-43
2022/04/30 21:51:04;;;;;;;5.07;4.57;;;;;;;13.33;44.25;101717.88;5078019;28;20050;-44
2022/04/30 21:53:29;;;;;;;8.27;5.30;;;;;;;13.36;45.00;101763.41;5043274;28;20032;-43
2022/04/30 22:01:28;;;;;;;6.20;4.22;;;;;;;13.16;45.78;101780.03;5063090;28;20032;-44
2022/04/30 22:03:55;;;;;;;5.68;3.90;;;;;;;13.16;46.38;101782.72;5059304;28;20025;-45
2022/04/30 22:06:22;;;;;;;6.03;4.82;;;;;;;12.89;47.03;101765.19;5076589;28;20040;-43
2022/04/30 22:08:49;;;;;;;8.15;5.47;;;;;;;12.89;47.88;101781.38;5076292;28;20036;-43
2022/04/30 22:11:16;;;;;;;6.93;5.13;;;;;;;12.82;48.19;101780.41;5077533;28;20119;-44
2022/04/30 22:13:43;;;;;;;8.75;5.07;;;;;;;12.85;48.20;101771.97;5077656;28;20043;-44
2022/04/30 22:16:09;;;;;;;10.35;4.93;;;;;;;12.86;47.93;101764.72;5076921;28;20489;-45
2022/04/30 22:18:36;;;;;;;9.48;5.75;;;;;;;12.71;49.60;101765.44;5075720;28;20430;-44
2022/04/30 22:21:02;;;;;;;10.45;6.22;;;;;;;12.51;50.43;101778.50;5076081;28;20034;-44
2022/04/30 22:23:28;;;;;;;8.68;6.05;;;;;;;12.49;51.07;101775.13;5057602;28;20039;-44
2022/04/30 22:25:55;;;;;;;10.70;6.70;;;;;;;12.22;51.14;101737.84;5075157;28;20160;-44
2022/04/30 22:28:21;;;;;;;9.60;6.90;;;;;;;12.46;51.13;101775.50;5056967;28;20498;-43
2022/04/30 22:30:49;;;;;;;12.57;6.85;;;;;;;12.39;51.70;101779.91;5075572;28;20032;-45
2022/04/30 22:33:19;;;;;;;8.65;6.50;;;;;;;12.27;51.86;101765.09;5075398;28;20480;-46
2022/04/30 22:35:46;;;;;;;8.20;6.45;;;;;;;12.32;52.08;101781.59;5057448;28;20036;-45
2022/04/30 22:38:14;;;;;;;10.80;6.95;;;;;;;12.29;52.46;101776.53;5075891;28;20028;-47
2022/04/30 22:43:25;;;;;;;9.10;6.20;;;;;;;12.39;52.19;101772.66;5060001;28;20044;-45
2022/04/30 22:45:52;;;;;;;9.60;6.53;;;;;;;12.40;52.05;101786.94;5074748;28;20051;-46
2022/04/30 22:48:21;;;;;;;9.50;6.88;;;;;;;12.39;52.42;101782.59;5061472;28;20029;-43
2022/04/30 22:50:48;;;;;;;8.85;6.82;;;;;;;12.38;52.27;101780.91;5078987;28;20365;-45
2022/04/30 22:53:14;;;;;;;7.75;6.25;;;;;;;12.36;52.40;101778.38;5060382;28;20031;-42
2022/04/30 22:55:41;;;;;;;6.50;5.88;;;;;;;12.38;52.33;101781.72;5078150;28;20028;-45
2022/04/30 22:58:07;;;;;;;5.30;4.80;;;;;;;12.30;52.38;101762.91;5076920;28;20028;-44
2022/04/30 23:00:33;;;;;;;7.20;5.88;;;;;;;12.35;52.84;101775.84;5057633;28;20496;-46
2022/04/30 23:02:59;;;;;;;9.80;6.75;;;;;;;12.35;52.54;101775.84;5057070;28;20029;-46
2022/04/30 23:05:25;;;;;;;8.70;6.15;;;;;;;12.31;52.87;101775.38;5075290;28;20025;-43
2022/04/30 23:07:51;;;;;;;7.47;6.72;;;;;;;12.21;53.15;101769.34;5074705;28;20035;-42
2022/04/30 23:10:19;;;;;;;7.13;6.43;;;;;;;12.31;52.84;101782.59;5074460;28;20029;-44
2022/04/30 23:12:46;;;;;;;7.35;5.85;;;;;;;11.99;52.85;101743.97;5056587;28;20048;-42
2022/04/30 23:15:14;;;;;;;9.30;6.78;;;;;;;12.13;53.24;101769.38;5055989;28;20063;-44
2022/04/30 23:17:40;;;;;;;9.13;7.75;;;;;;;12.24;52.89;101765.44;5074047;28;20063;-43
2022/04/30 23:20:08;;;;;;;8.38;7.50;;;;;;;12.28;53.26;101772.19;5074142;28;20424;-42
2022/04/30 23:22:36;;;;;;;9.10;7.50;;;;;;;12.30;52.74;101772.84;5073766;28;20032;-45
2022/04/30 23:25:03;;;;;;;10.10;6.93;;;;;;;12.28;52.96;101775.72;5073810;28;20029;-43
2022/04/30 23:27:29;;;;;;;9.73;6.97;;;;;;;12.19;53.36;101777.56;5073767;28;20480;-45
2022/04/30 23:29:56;;;;;;;10.93;7.40;;;;;;;12.24;52.85;101774.38;5073798;28;20040;-44
2022/04/30 23:32:23;;;;;;;8.50;7.63;;;;;;;12.04;53.55;101747.00;5074468;28;20028;-45
2022/04/30 23:34:49;;;;;;;7.95;6.80;;;;;;;12.13;53.41;101763.97;5074093;28;20031;-44
2022/04/30 23:37:15;;;;;;;13.60;8.05;;;;;;;12.00;54.07;101756.44;5073244;28;20119;-44
2022/04/30 23:39:41;;;;;;;9.55;7.07;;;;;;;12.10;53.72;101765.13;5073043;28;20104;-45
2022/04/30 23:42:07;;;;;;;10.32;6.63;;;;;;;11.95;53.74;101732.69;5038130;28;20032;-43
2022/04/30 23:44:33;;;;;;;8.82;7.93;;;;;;;12.08;54.60;101764.47;5057780;28;20239;-47
2022/04/30 23:47:01;;;;;;;8.38;7.53;;;;;;;11.93;54.70;101766.19;5074950;28;20028;-44
2022/04/30 23:49:29;;;;;;;12.05;8.75;;;;;;;11.77;55.82;101756.25;5093110;28;20368;-43
2022/04/30 23:51:55;;;;;;;7.93;7.10;;;;;;;11.88;54.82;101750.50;5074874;28;20106;-44
2022/04/30 23:54:23;;;;;;;10.32;7.55;;;;;;;11.97;55.05;101770.22;5092614;28;20153;-48
2022/04/30 23:56:49;;;;;;;11.32;7.97;;;;;;;11.98;54.93;101770.06;5074743;28;20055;-46
2022/04/30 23:59:15;;;;;;;10.40;7.50;;;;;;;11.89;55.04;101765.66;5074648;28;20541;-44
